Time;durP1;ratioP1;P1;durP2;ratioP2;P2;SDS_P1;SDS_P2;PMS_P1;PMS_P2;Temp;Humidity;BMP_temperature;BMP_pressure;BME280_temperature;BME280_humidity;BME280_pressure;Samples;Min_cycle;Max_cycle;Signal;HPM_P1;HPM_P2
2022/03/04 00:02:07;;;;;;;17.25;8.52;;;6.40;51.90;;;;;;5113132;28;20017;-67
2022/03/04 00:04:37;;;;;;;17.35;8.77;;;6.30;52.00;;;;;;5112994;28;20428;-67
2022/03/04 00:07:04;;;;;;;17.75;8.80;;;6.40;52.20;;;;;;5113134;28;20041;-67
2022/03/04 00:09:30;;;;;;;15.95;8.85;;;6.40;52.80;;;;;;5113064;28;20024;-67
2022/03/04 00:11:56;;;;;;;19.58;9.10;;;6.50;51.70;;;;;;5113049;28;20084;-67
2022/03/04 00:14:24;;;;;;;20.50;9.57;;;6.40;51.90;;;;;;5113031;28;20028;-67
2022/03/04 00:16:50;;;;;;;20.63;9.82;;;6.40;51.90;;;;;;5113017;28;20028;-67
2022/03/04 00:19:16;;;;;;;17.48;8.63;;;6.40;52.10;;;;;;5112952;28;20024;-67
2022/03/04 00:21:44;;;;;;;19.02;8.88;;;6.50;52.00;;;;;;5112913;28;20028;-67
2022/03/04 00:24:11;;;;;;;21.63;9.75;;;6.50;52.10;;;;;;5112766;28;20042;-67
2022/03/04 00:26:38;;;;;;;25.88;9.50;;;6.50;51.90;;;;;;5112892;28;20020;-67
2022/03/04 00:29:05;;;;;;;18.10;9.30;;;6.40;51.90;;;;;;5112875;28;20024;-67
2022/03/04 00:31:31;;;;;;;18.02;9.18;;;6.40;52.00;;;;;;5112845;28;20029;-67
2022/03/04 00:33:56;;;;;;;18.70;9.10;;;6.40;52.50;;;;;;5112824;28;20024;-67
2022/03/04 00:36:23;;;;;;;18.05;9.00;;;6.50;52.50;;;;;;5112818;28;20056;-67
2022/03/04 00:38:54;;;;;;;17.83;8.85;;;6.40;52.40;;;;;;5112778;28;20020;-67
2022/03/04 00:41:22;;;;;;;18.23;9.32;;;6.40;52.60;;;;;;5112540;28;20060;-67
2022/03/04 00:43:48;;;;;;;18.00;9.50;;;6.50;52.50;;;;;;5114587;28;20028;-67
2022/03/04 00:46:14;;;;;;;18.38;9.63;;;6.50;52.40;;;;;;5116371;28;20076;-67
2022/03/04 00:48:42;;;;;;;19.58;9.48;;;6.50;53.20;;;;;;5116170;28;20062;-67
2022/03/04 00:51:08;;;;;;;19.35;9.63;;;6.50;52.40;;;;;;5116290;28;20020;-67
2022/03/04 00:53:34;;;;;;;19.35;10.20;;;6.50;52.40;;;;;;5116233;28;20028;-67
2022/03/04 00:56:00;;;;;;;20.02;9.50;;;6.50;52.20;;;;;;5116207;28;20096;-67
2022/03/04 00:58:26;;;;;;;21.15;9.27;;;6.50;52.30;;;;;;5116166;28;20027;-67
2022/03/04 01:00:51;;;;;;;22.08;9.68;;;6.40;52.30;;;;;;5116158;28;20032;-67
2022/03/04 01:03:18;;;;;;;19.50;9.68;;;6.40;52.60;;;;;;5098102;28;20024;-67
2022/03/04 01:05:44;;;;;;;19.85;9.63;;;6.40;53.60;;;;;;5098057;28;20051;-67
2022/03/04 01:08:10;;;;;;;21.27;10.63;;;6.40;52.80;;;;;;5115959;28;20020;-67
2022/03/04 01:10:37;;;;;;;18.15;9.77;;;6.40;52.80;;;;;;5115934;28;20012;-67
2022/03/04 01:13:03;;;;;;;17.73;8.82;;;6.40;52.70;;;;;;5115886;28;20032;-67
2022/03/04 01:15:28;;;;;;;17.63;8.80;;;6.40;52.80;;;;;;5115836;28;20099;-67
2022/03/04 01:17:55;;;;;;;20.05;9.32;;;6.30;52.80;;;;;;5115908;28;20035;-67
2022/03/04 01:20:21;;;;;;;20.15;9.55;;;6.30;52.80;;;;;;5115790;28;20541;-67
2022/03/04 01:22:47;;;;;;;22.23;10.52;;;6.30;52.90;;;;;;5115705;28;20033;-67
2022/03/04 01:25:12;;;;;;;22.45;10.00;;;6.30;52.90;;;;;;5115538;28;20027;-67
2022/03/04 01:27:38;;;;;;;20.70;10.80;;;6.30;53.20;;;;;;5097759;28;20028;-67
2022/03/04 01:30:06;;;;;;;19.55;10.20;;;6.20;53.10;;;;;;5115548;28;20035;-67
2022/03/04 01:32:31;;;;;;;18.15;9.93;;;6.20;53.30;;;;;;5115509;28;20027;-67
2022/03/04 01:34:57;;;;;;;20.00;10.13;;;6.10;53.50;;;;;;5097582;28;20035;-67
2022/03/04 01:37:23;;;;;;;19.83;10.05;;;6.10;53.30;;;;;;5115416;28;20024;-67
2022/03/04 01:39:49;;;;;;;20.55;9.43;;;6.10;53.60;;;;;;5115374;28;20020;-67
2022/03/04 01:42:15;;;;;;;26.30;10.85;;;6.10;53.70;;;;;;5115310;28;20020;-67
2022/03/04 01:44:40;;;;;;;18.27;9.35;;;6.10;53.60;;;;;;5115197;28;20036;-67
2022/03/04 01:47:07;;;;;;;21.27;9.98;;;6.10;53.70;;;;;;5115075;28;20048;-67
2022/03/04 01:49:33;;;;;;;20.10;9.80;;;6.00;53.90;;;;;;5097277;28;20032;-67
2022/03/04 01:51:58;;;;;;;21.67;10.63;;;6.00;54.20;;;;;;5115108;28;20043;-67
2022/03/04 01:54:24;;;;;;;23.85;11.23;;;5.90;54.20;;;;;;5114245;28;20036;-67
2022/03/04 01:56:50;;;;;;;23.55;10.77;;;5.90;54.10;;;;;;5114884;28;20028;-67
2022/03/04 01:59:16;;;;;;;19.08;9.55;;;5.80;54.20;;;;;;5115100;28;20028;-67
2022/03/04 02:01:42;;;;;;;19.92;9.05;;;5.70;54.60;;;;;;5114886;28;20035;-67
2022/03/04 02:04:08;;;;;;;21.48;9.98;;;5.80;54.70;;;;;;5114798;28;20028;-67
2022/03/04 02:06:33;;;;;;;20.20;9.75;;;5.70;54.70;;;;;;5114830;28;20028;-67
2022/03/04 02:08:59;;;;;;;21.10;10.40;;;5.70;55.00;;;;;;5114822;28;20016;-67
2022/03/04 02:11:25;;;;;;;18.65;9.75;;;5.70;55.00;;;;;;5114779;28;20020;-67
2022/03/04 02:13:50;;;;;;;22.65;10.20;;;5.70;55.00;;;;;;5114713;28;20107;-67
2022/03/04 02:16:26;;;;;;;19.55;10.63;;;5.70;55.20;;;;;;5114666;28;20079;-67
2022/03/04 02:18:53;;;;;;;23.88;10.20;;;5.70;55.20;;;;;;5114627;28;20028;-67
2022/03/04 02:21:22;;;;;;;25.80;10.55;;;5.70;55.10;;;;;;5114566;28;20024;-67
2022/03/04 02:23:48;;;;;;;21.73;10.38;;;5.70;55.30;;;;;;5114335;28;20083;-67
2022/03/04 02:26:14;;;;;;;21.48;11.07;;;5.70;55.20;;;;;;5114485;28;20077;-67
2022/03/04 02:28:39;;;;;;;20.83;10.30;;;5.60;55.20;;;;;;5114432;28;20047;-67
2022/03/04 02:31:05;;;;;;;23.45;11.95;;;5.70;55.30;;;;;;5114369;28;20061;-67
2022/03/04 02:33:31;;;;;;;21.98;10.75;;;5.60;55.60;;;;;;5114346;28;20020;-67
2022/03/04 02:35:56;;;;;;;23.35;10.98;;;5.60;55.50;;;;;;5096450;28;20070;-67
2022/03/04 02:38:22;;;;;;;22.02;10.85;;;5.60;55.70;;;;;;5114266;28;20020;-67
2022/03/04 02:40:48;;;;;;;27.73;12.52;;;5.60;55.70;;;;;;5114192;28;20490;-67
2022/03/04 02:43:13;;;;;;;21.65;10.57;;;5.50;56.00;;;;;;5114296;28;20055;-67
2022/03/04 02:45:39;;;;;;;21.35;11.02;;;5.50;56.10;;;;;;5114070;28;20040;-67
2022/03/04 02:48:05;;;;;;;23.05;10.55;;;5.40;56.30;;;;;;5113836;28;20116;-67
2022/03/04 02:50:30;;;;;;;24.25;11.73;;;5.40;56.30;;;;;;5114022;28;20020;-67
2022/03/04 02:52:56;;;;;;;26.88;11.65;;;5.40;56.40;;;;;;5095968;28;20032;-67
2022/03/04 02:55:22;;;;;;;24.67;11.63;;;5.30;56.30;;;;;;5113940;28;20035;-67
2022/03/04 02:57:48;;;;;;;23.42;11.13;;;5.10;56.50;;;;;;5113918;28;20072;-67
2022/03/04 03:00:15;;;;;;;22.92;11.02;;;5.10;56.90;;;;;;5113855;28;20058;-67
2022/03/04 03:02:42;;;;;;;22.67;11.13;;;5.10;56.90;;;;;;5113830;28;20050;-67
2022/03/04 03:05:09;;;;;;;24.20;11.20;;;5.10;57.20;;;;;;5113742;28;20099;-67
2022/03/04 03:07:35;;;;;;;22.75;10.70;;;5.10;57.40;;;;;;5113317;28;20107;-67
2022/03/04 03:10:01;;;;;;;25.77;11.40;;;5.10;57.30;;;;;;5113730;28;20028;-67
2022/03/04 03:12:27;;;;;;;25.73;11.55;;;5.20;57.20;;;;;;5113685;28;20028;-67
2022/03/04 03:14:53;;;;;;;26.13;11.38;;;5.20;57.00;;;;;;5113648;28;20053;-67
2022/03/04 03:17:18;;;;;;;23.38;10.93;;;5.30;57.00;;;;;;5113631;28;20032;-67
2022/03/04 03:19:44;;;;;;;27.00;11.73;;;5.30;57.00;;;;;;5113614;28;20024;-67
2022/03/04 03:22:10;;;;;;;22.60;11.65;;;5.30;56.90;;;;;;5113566;28;20027;-67
2022/03/04 03:24:36;;;;;;;23.42;11.00;;;5.30;56.80;;;;;;5095641;28;20077;-67
2022/03/04 03:27:02;;;;;;;24.13;10.82;;;5.30;56.90;;;;;;5113589;28;20020;-67
2022/03/04 03:29:27;;;;;;;24.90;11.52;;;5.30;56.90;;;;;;5113463;28;20078;-67
2022/03/04 03:31:53;;;;;;;23.17;11.10;;;5.30;56.90;;;;;;5113518;28;20028;-67
2022/03/04 03:34:19;;;;;;;23.92;10.93;;;5.30;56.80;;;;;;5113447;28;20037;-67
2022/03/04 03:36:44;;;;;;;23.52;11.90;;;5.20;56.80;;;;;;5113493;28;20463;-67
2022/03/04 03:39:10;;;;;;;21.30;10.75;;;5.20;57.00;;;;;;5113377;28;20024;-67
2022/03/04 03:41:36;;;;;;;24.50;10.68;;;5.20;57.10;;;;;;5113334;28;20036;-67
2022/03/04 03:44:02;;;;;;;20.85;11.07;;;5.20;57.10;;;;;;5113208;28;20055;-67
2022/03/04 03:46:27;;;;;;;26.23;11.27;;;5.20;57.30;;;;;;5113276;28;20028;-67
2022/03/04 03:48:53;;;;;;;24.58;11.90;;;5.10;57.10;;;;;;5112969;28;20047;-67
2022/03/04 03:51:19;;;;;;;21.75;11.60;;;5.10;57.30;;;;;;5113357;28;20056;-67
2022/03/04 03:53:45;;;;;;;30.67;12.55;;;5.00;57.50;;;;;;5113210;28;20046;-67
2022/03/04 03:56:10;;;;;;;23.05;11.15;;;4.90;57.50;;;;;;5113325;28;20028;-67
2022/03/04 03:58:36;;;;;;;30.67;12.27;;;4.80;58.30;;;;;;5113157;28;20050;-67
2022/03/04 04:01:03;;;;;;;24.50;12.02;;;4.80;58.30;;;;;;5113130;28;20055;-67
2022/03/04 04:03:29;;;;;;;26.30;11.38;;;4.70;58.40;;;;;;5095158;28;20028;-67
2022/03/04 04:05:55;;;;;;;27.55;11.10;;;4.70;58.40;;;;;;5095411;28;20030;-67
2022/03/04 04:08:21;;;;;;;23.20;10.68;;;4.80;58.50;;;;;;5113220;28;20032;-67
2022/03/04 04:10:46;;;;;;;23.98;11.73;;;4.80;58.20;;;;;;5113180;28;20020;-67
2022/03/04 04:13:12;;;;;;;24.00;11.50;;;4.90;58.10;;;;;;5113042;28;20028;-67
2022/03/04 04:15:38;;;;;;;26.27;12.15;;;4.90;57.90;;;;;;5113012;28;20093;-67
2022/03/04 04:18:04;;;;;;;26.83;12.50;;;4.90;57.60;;;;;;5113826;28;20024;-67
2022/03/04 04:20:30;;;;;;;23.48;11.57;;;4.90;57.60;;;;;;5116948;28;20036;-67
2022/03/04 04:22:55;;;;;;;22.02;10.88;;;5.00;57.50;;;;;;5116881;28;20111;-67
2022/03/04 04:25:21;;;;;;;28.08;11.38;;;5.00;57.40;;;;;;5098776;28;20039;-67
2022/03/04 04:27:47;;;;;;;24.00;11.80;;;5.00;57.30;;;;;;5116801;28;20021;-67
2022/03/04 04:30:13;;;;;;;26.67;11.85;;;5.00;57.30;;;;;;5098755;28;20058;-67
2022/03/04 04:32:38;;;;;;;23.98;11.52;;;5.00;57.30;;;;;;5116679;28;20039;-67
2022/03/04 04:35:05;;;;;;;24.08;12.27;;;5.00;57.20;;;;;;5116762;28;20052;-67
2022/03/04 04:37:31;;;;;;;27.52;11.15;;;4.90;57.20;;;;;;5116631;28;20040;-67
2022/03/04 04:39:57;;;;;;;26.08;12.32;;;4.90;57.20;;;;;;5098785;28;20020;-67
2022/03/04 04:42:23;;;;;;;27.60;11.90;;;4.90;57.30;;;;;;5116510;28;20034;-67
2022/03/04 04:44:48;;;;;;;25.75;12.25;;;4.80;57.50;;;;;;5116378;28;20024;-67
2022/03/04 04:47:14;;;;;;;22.52;10.77;;;4.90;57.60;;;;;;5116282;28;20047;-67
2022/03/04 04:49:40;;;;;;;20.52;10.52;;;4.80;57.60;;;;;;5116432;28;20036;-67
2022/03/04 04:52:07;;;;;;;21.38;10.85;;;4.80;57.60;;;;;;5116481;28;20028;-67
2022/03/04 04:54:33;;;;;;;26.67;11.57;;;4.80;57.70;;;;;;5116233;28;20402;-67
2022/03/04 04:56:59;;;;;;;25.63;11.60;;;4.80;57.70;;;;;;5116240;28;20032;-67
2022/03/04 04:59:25;;;;;;;23.10;11.07;;;4.80;57.60;;;;;;5116189;28;20446;-67
2022/03/04 05:01:51;;;;;;;25.33;12.05;;;4.70;57.60;;;;;;5116130;28;20024;-67
2022/03/04 05:04:17;;;;;;;24.17;11.27;;;4.60;57.90;;;;;;5116029;28;20028;-67
2022/03/04 05:06:42;;;;;;;24.83;11.27;;;4.60;58.20;;;;;;5116018;28;20088;-67
2022/03/04 05:09:08;;;;;;;23.60;11.77;;;4.50;58.40;;;;;;5116023;28;20024;-67
2022/03/04 05:11:34;;;;;;;25.33;11.32;;;4.50;58.50;;;;;;5115953;28;20081;-67
2022/03/04 05:14:00;;;;;;;26.80;11.52;;;4.50;58.50;;;;;;5115943;28;20028;-67
2022/03/04 05:16:25;;;;;;;25.45;12.20;;;4.60;58.50;;;;;;5115870;28;20034;-67
2022/03/04 05:18:51;;;;;;;25.70;12.05;;;4.60;58.40;;;;;;5097978;28;20032;-66
2022/03/04 05:21:17;;;;;;;31.98;11.98;;;4.60;58.60;;;;;;5115758;28;20110;-66
2022/03/04 05:24:00;;;;;;;24.15;11.40;;;4.50;58.70;;;;;;5115561;28;20057;-66
2022/03/04 05:26:33;;;;;;;26.75;11.63;;;4.50;58.80;;;;;;5115781;28;20088;-66
2022/03/04 05:29:00;;;;;;;27.27;11.73;;;4.40;58.90;;;;;;5115422;28;20075;-66
2022/03/04 05:31:27;;;;;;;25.30;11.48;;;4.40;59.10;;;;;;5115568;28;20046;-66
2022/03/04 05:33:53;;;;;;;23.52;11.15;;;4.40;59.30;;;;;;5115570;28;20024;-66
2022/03/04 05:36:20;;;;;;;25.45;11.98;;;4.40;59.30;;;;;;5115512;28;20020;-66
2022/03/04 05:38:46;;;;;;;26.27;11.88;;;4.40;59.40;;;;;;5115448;28;20108;-66
2022/03/04 05:41:12;;;;;;;29.60;12.50;;;4.30;59.70;;;;;;5115377;28;20024;-66
2022/03/04 05:43:38;;;;;;;26.00;11.80;;;4.30;60.00;;;;;;5115356;28;20020;-66
2022/03/04 05:46:05;;;;;;;26.65;10.98;;;4.30;60.00;;;;;;5115328;28;20032;-66
2022/03/04 05:48:30;;;;;;;27.27;12.35;;;4.30;59.90;;;;;;5097142;28;20051;-66
2022/03/04 05:50:56;;;;;;;29.02;13.32;;;4.30;60.00;;;;;;5115173;28;20083;-66
2022/03/04 05:53:22;;;;;;;26.58;12.85;;;4.20;60.00;;;;;;5115150;28;20031;-66
2022/03/04 05:55:48;;;;;;;25.95;11.95;;;4.20;60.10;;;;;;5115103;28;20032;-66
2022/03/04 05:58:13;;;;;;;25.63;12.43;;;4.20;60.10;;;;;;5115035;28;20046;-66
2022/03/04 06:00:39;;;;;;;25.80;12.15;;;4.20;60.20;;;;;;5115099;28;20035;-66
2022/03/04 06:03:05;;;;;;;27.88;12.75;;;4.10;60.30;;;;;;5114974;28;20039;-66
2022/03/04 06:05:30;;;;;;;28.10;12.00;;;4.20;60.40;;;;;;5114875;28;20028;-66
2022/03/04 06:07:56;;;;;;;26.40;12.10;;;4.20;61.30;;;;;;5114856;28;20051;-66
2022/03/04 06:10:22;;;;;;;27.15;13.13;;;4.10;60.40;;;;;;5114840;28;20098;-66
2022/03/04 06:12:48;;;;;;;29.83;13.10;;;4.10;60.50;;;;;;5114752;28;20019;-66
2022/03/04 06:15:14;;;;;;;23.75;12.18;;;4.10;60.70;;;;;;5114766;28;20058;-66
2022/03/04 06:17:46;;;;;;;29.95;12.57;;;4.00;60.80;;;;;;5114673;28;20028;-66
2022/03/04 06:20:11;;;;;;;24.48;12.13;;;3.90;61.10;;;;;;5114689;28;20049;-66
2022/03/04 06:22:37;;;;;;;26.65;11.98;;;3.90;61.20;;;;;;5114499;28;20031;-66
2022/03/04 06:25:04;;;;;;;28.10;12.18;;;3.90;61.50;;;;;;5114471;28;20095;-66
2022/03/04 06:27:30;;;;;;;30.83;13.48;;;3.90;61.70;;;;;;5114611;28;20039;-66
2022/03/04 06:29:55;;;;;;;30.08;14.07;;;3.90;61.80;;;;;;5114421;28;20020;-66
2022/03/04 06:32:21;;;;;;;29.63;13.90;;;3.80;62.70;;;;;;5114368;28;20087;-67
2022/03/04 06:34:47;;;;;;;27.20;12.90;;;3.90;62.00;;;;;;5114324;28;20061;-67
2022/03/04 06:37:13;;;;;;;28.10;13.25;;;3.80;62.00;;;;;;5114319;28;20036;-67
2022/03/04 06:39:40;;;;;;;30.98;13.77;;;3.80;62.20;;;;;;5114254;28;20020;-67
2022/03/04 06:42:05;;;;;;;24.55;12.70;;;3.90;62.30;;;;;;5113627;28;20028;-67
2022/03/04 06:44:32;;;;;;;32.13;14.23;;;3.90;62.50;;;;;;5114093;28;20391;-67
2022/03/04 06:46:57;;;;;;;29.88;13.68;;;3.90;62.60;;;;;;5113959;28;20023;-67
2022/03/04 06:49:23;;;;;;;31.20;13.75;;;3.80;62.70;;;;;;5114122;28;20028;-66
2022/03/04 06:51:48;;;;;;;31.85;14.23;;;3.80;62.80;;;;;;5096018;28;20024;-67
2022/03/04 06:54:14;;;;;;;30.98;14.30;;;3.80;62.80;;;;;;5113983;28;20037;-67
2022/03/04 06:56:40;;;;;;;30.38;14.48;;;3.70;63.60;;;;;;5113953;28;20032;-67
2022/03/04 06:59:06;;;;;;;31.02;13.75;;;3.70;63.80;;;;;;5113888;28;20032;-67
2022/03/04 07:01:31;;;;;;;28.45;13.65;;;3.70;63.90;;;;;;5113874;28;20035;-66
2022/03/04 07:03:57;;;;;;;30.80;14.55;;;3.70;64.10;;;;;;5113740;28;20031;-67
2022/03/04 07:06:23;;;;;;;32.05;14.25;;;3.70;64.20;;;;;;5113787;28;20032;-66
2022/03/04 07:08:48;;;;;;;32.42;14.93;;;3.70;65.20;;;;;;5113734;28;20035;-66
2022/03/04 07:11:14;;;;;;;31.05;14.68;;;3.60;65.00;;;;;;5113688;28;20024;-66
2022/03/04 07:13:40;;;;;;;33.70;14.45;;;3.60;65.20;;;;;;5113684;28;20028;-66
2022/03/04 07:16:05;;;;;;;30.23;13.48;;;3.60;65.10;;;;;;5113519;28;20060;-66
2022/03/04 07:18:31;;;;;;;35.42;14.30;;;3.60;65.20;;;;;;5113605;28;20040;-66
2022/03/04 07:20:58;;;;;;;29.80;12.88;;;3.60;65.40;;;;;;5113564;28;20047;-66
2022/03/04 07:23:24;;;;;;;30.50;13.50;;;3.70;65.60;;;;;;5113545;28;20417;-66
2022/03/04 07:25:50;;;;;;;26.48;13.57;;;3.70;65.70;;;;;;5113449;28;20043;-67
2022/03/04 07:28:16;;;;;;;28.95;14.32;;;3.80;66.10;;;;;;5113504;28;20024;-66
2022/03/04 07:30:42;;;;;;;30.95;12.85;;;3.80;65.80;;;;;;5095496;28;20032;-66
2022/03/04 07:33:08;;;;;;;30.23;13.40;;;3.80;66.00;;;;;;5113390;28;20020;-66
2022/03/04 07:35:34;;;;;;;28.13;13.35;;;3.80;65.90;;;;;;5113388;28;20024;-67
2022/03/04 07:37:59;;;;;;;30.10;15.20;;;3.90;65.90;;;;;;5113388;28;20024;-67
2022/03/04 07:40:25;;;;;;;29.67;13.98;;;4.00;66.70;;;;;;5113354;28;20032;-67
2022/03/04 07:42:51;;;;;;;31.27;14.25;;;4.00;66.20;;;;;;5113296;28;20056;-67
2022/03/04 07:45:17;;;;;;;32.67;15.32;;;4.10;65.90;;;;;;5095526;28;20063;-67
2022/03/04 07:47:43;;;;;;;33.95;14.52;;;4.10;65.90;;;;;;5113076;28;20052;-67
2022/03/04 07:50:14;;;;;;;33.13;14.18;;;4.20;65.70;;;;;;5113264;28;20044;-67
2022/03/04 07:52:41;;;;;;;33.47;15.23;;;4.20;65.70;;;;;;5113558;28;20024;-67
2022/03/04 07:55:11;;;;;;;31.05;14.52;;;4.30;66.40;;;;;;5117457;28;20087;-67
2022/03/04 07:57:37;;;;;;;35.30;14.57;;;4.30;65.70;;;;;;5117393;28;20028;-67
2022/03/04 08:00:05;;;;;;;33.75;13.80;;;4.40;66.10;;;;;;5117285;28;20092;-67
2022/03/04 08:02:31;;;;;;;32.40;14.75;;;4.40;66.20;;;;;;5117418;28;20034;-67
2022/03/04 08:04:57;;;;;;;28.08;13.13;;;4.50;66.00;;;;;;5117269;28;20032;-67
2022/03/04 08:07:22;;;;;;;32.90;15.32;;;4.40;66.20;;;;;;5099325;28;20032;-67
2022/03/04 08:09:48;;;;;;;29.02;13.30;;;4.50;66.70;;;;;;5099381;28;20039;-67
2022/03/04 08:12:13;;;;;;;32.70;13.45;;;4.50;65.90;;;;;;5117119;28;20024;-67
2022/03/04 08:14:39;;;;;;;27.92;12.95;;;4.50;66.20;;;;;;5099175;28;20031;-67
2022/03/04 08:17:05;;;;;;;33.40;15.20;;;4.50;66.00;;;;;;5117016;28;20539;-67
2022/03/04 08:19:31;;;;;;;28.35;12.82;;;4.60;66.00;;;;;;5116941;28;20031;-67
2022/03/04 08:21:57;;;;;;;33.13;14.38;;;4.70;66.30;;;;;;5116919;28;20031;-67
2022/03/04 08:24:23;;;;;;;29.27;13.60;;;4.80;66.10;;;;;;5116697;28;20024;-67
2022/03/04 08:26:48;;;;;;;26.63;12.63;;;4.90;65.90;;;;;;5116837;28;20479;-67
2022/03/04 08:29:14;;;;;;;32.15;14.02;;;5.00;65.70;;;;;;5116780;28;20032;-67
2022/03/04 08:31:40;;;;;;;27.23;14.13;;;5.10;65.50;;;;;;5116725;28;20111;-67
2022/03/04 08:34:06;;;;;;;30.35;14.50;;;5.30;65.30;;;;;;5116702;28;20032;-67
2022/03/04 08:36:32;;;;;;;27.50;12.68;;;5.30;65.00;;;;;;5116772;28;20020;-67
2022/03/04 08:39:02;;;;;;;28.27;13.43;;;5.40;64.70;;;;;;5098718;28;20051;-67
2022/03/04 08:41:29;;;;;;;28.27;13.25;;;5.60;64.70;;;;;;5116594;28;20024;-67
2022/03/04 08:43:54;;;;;;;30.30;13.77;;;5.70;64.70;;;;;;5116423;28;20506;-67
2022/03/04 08:46:21;;;;;;;27.48;13.02;;;5.80;63.50;;;;;;5116584;28;20035;-67
2022/03/04 08:48:47;;;;;;;29.27;13.27;;;5.90;64.10;;;;;;5116208;28;20051;-67
2022/03/04 08:51:12;;;;;;;25.85;12.38;;;6.00;63.40;;;;;;5116369;28;20024;-67
2022/03/04 08:53:38;;;;;;;25.60;12.40;;;6.00;62.50;;;;;;5116319;28;20028;-67
2022/03/04 08:56:04;;;;;;;27.58;13.10;;;6.10;62.20;;;;;;5116277;28;20032;-65
2022/03/04 08:58:30;;;;;;;28.73;13.27;;;6.20;62.40;;;;;;5116275;28;20035;-67
2022/03/04 09:00:56;;;;;;;28.05;13.90;;;6.30;62.70;;;;;;5098206;28;20024;-67
2022/03/04 09:03:22;;;;;;;27.48;12.80;;;6.50;62.10;;;;;;5115809;28;20039;-67
2022/03/04 09:05:48;;;;;;;24.40;12.30;;;6.60;61.20;;;;;;5115718;28;20032;-66
2022/03/04 09:08:14;;;;;;;23.77;12.57;;;6.60;60.20;;;;;;5098179;28;20029;-67
2022/03/04 09:10:40;;;;;;;26.52;12.63;;;6.50;61.00;;;;;;5115961;28;20028;-67
2022/03/04 09:13:06;;;;;;;22.70;11.52;;;6.60;61.50;;;;;;5115931;28;20020;-67
2022/03/04 09:15:32;;;;;;;24.45;12.38;;;6.70;60.10;;;;;;5115900;28;20032;-66
2022/03/04 09:17:58;;;;;;;26.33;12.32;;;6.70;59.50;;;;;;5115828;28;20039;-67
2022/03/04 09:20:24;;;;;;;29.52;13.00;;;6.80;60.00;;;;;;5097822;28;20027;-67
2022/03/04 09:22:50;;;;;;;26.23;12.65;;;6.90;59.70;;;;;;5115719;28;20028;-67
2022/03/04 09:25:16;;;;;;;24.48;12.02;;;7.00;58.80;;;;;;5115579;28;20029;-67
2022/03/04 09:27:43;;;;;;;25.42;11.77;;;7.10;60.70;;;;;;5097980;28;20024;-67
2022/03/04 09:30:09;;;;;;;25.58;13.30;;;7.30;59.70;;;;;;5115665;28;20024;-64
2022/03/04 09:32:36;;;;;;;20.17;9.75;;;7.50;58.60;;;;;;5115595;28;20024;-66
2022/03/04 09:35:02;;;;;;;25.00;12.05;;;7.50;55.10;;;;;;5115597;28;20122;-67
2022/03/04 09:37:28;;;;;;;23.23;11.20;;;7.30;55.90;;;;;;5115457;28;20024;-65
2022/03/04 09:39:54;;;;;;;21.77;10.57;;;7.30;55.20;;;;;;5115395;28;20043;-67
2022/03/04 09:42:21;;;;;;;23.90;11.02;;;7.30;54.80;;;;;;5115359;28;20020;-67
2022/03/04 09:44:46;;;;;;;25.15;12.27;;;7.30;55.20;;;;;;5115276;28;20020;-67
2022/03/04 09:47:12;;;;;;;26.05;12.30;;;7.40;55.70;;;;;;5097112;28;20055;-67
2022/03/04 09:49:38;;;;;;;27.20;12.40;;;7.40;55.30;;;;;;5115272;28;20032;-67
2022/03/04 09:52:05;;;;;;;26.77;12.43;;;7.50;56.10;;;;;;5115153;28;20031;-67
2022/03/04 09:54:32;;;;;;;20.90;9.43;;;7.70;56.50;;;;;;5115154;28;20024;-65
2022/03/04 09:56:58;;;;;;;26.67;13.95;;;7.70;56.00;;;;;;5115085;28;20031;-65
2022/03/04 09:59:24;;;;;;;25.42;11.48;;;7.60;53.80;;;;;;5115077;28;20024;-65
2022/03/04 10:01:50;;;;;;;31.48;14.38;;;7.70;54.40;;;;;;5114982;28;20029;-65
2022/03/04 10:04:16;;;;;;;27.92;13.60;;;7.80;55.00;;;;;;5114869;28;20031;-65
2022/03/04 10:06:47;;;;;;;27.65;14.52;;;7.90;53.80;;;;;;5114918;28;20084;-65
2022/03/04 10:09:13;;;;;;;28.30;13.00;;;7.90;53.80;;;;;;5114896;28;20020;-66
2022/03/04 10:11:39;;;;;;;25.48;13.13;;;8.00;54.10;;;;;;5114785;28;20024;-65
2022/03/04 10:14:09;;;;;;;26.90;13.93;;;8.20;54.50;;;;;;5114780;28;20050;-65
2022/03/04 10:16:38;;;;;;;27.45;13.48;;;8.30;54.10;;;;;;5113802;28;20046;-65
2022/03/04 10:19:16;;;;;;;27.05;13.98;;;8.40;53.50;;;;;;5096647;28;20065;-65
2022/03/04 10:21:51;;;;;;;29.40;13.13;;;8.50;51.60;;;;;;5114627;28;20028;-66
2022/03/04 10:24:21;;;;;;;27.02;14.55;;;8.40;52.20;;;;;;5114406;28;20046;-65
2022/03/04 10:26:56;;;;;;;24.98;13.32;;;8.50;54.20;;;;;;5096576;28;20016;-65
2022/03/04 10:29:24;;;;;;;26.48;13.50;;;8.60;51.10;;;;;;5114527;28;20028;-65
2022/03/04 10:32:12;;;;;;;30.20;14.95;;;8.70;51.30;;;;;;5114443;28;20039;-66
2022/03/04 10:35:21;;;;;;;24.80;13.07;;;8.80;53.00;;;;;;5114410;28;20031;-65
2022/03/04 10:37:54;;;;;;;26.52;13.57;;;8.90;52.10;;;;;;5052180;28;20036;-65
2022/03/04 10:40:20;;;;;;;27.10;13.32;;;9.00;51.50;;;;;;5052294;28;20085;-65
2022/03/04 10:42:48;;;;;;;29.00;14.60;;;9.10;51.90;;;;;;5086331;28;20048;-66
2022/03/04 10:45:20;;;;;;;27.48;14.10;;;9.30;51.60;;;;;;5114008;28;20028;-65
2022/03/04 10:47:51;;;;;;;23.93;12.47;;;9.30;50.60;;;;;;5113883;28;20069;-65
2022/03/04 10:50:24;;;;;;;29.17;14.25;;;9.20;50.00;;;;;;5114181;28;20016;-65
2022/03/04 10:52:59;;;;;;;27.92;14.07;;;9.20;50.10;;;;;;5114083;28;20042;-65
2022/03/04 10:55:37;;;;;;;25.80;13.27;;;9.30;50.70;;;;;;5114180;28;20028;-65
2022/03/04 10:58:07;;;;;;;26.10;12.70;;;9.30;48.40;;;;;;5113986;28;20039;-65
2022/03/04 11:00:35;;;;;;;28.60;14.57;;;9.20;50.10;;;;;;5113972;28;20023;-65
2022/03/04 11:03:03;;;;;;;28.40;15.13;;;9.30;51.40;;;;;;5113874;28;20027;-65
2022/03/04 11:05:29;;;;;;;28.67;14.75;;;9.40;49.90;;;;;;5113761;28;20104;-65
2022/03/04 11:07:55;;;;;;;25.77;13.38;;;9.50;50.30;;;;;;5113801;28;20032;-65
2022/03/04 11:10:21;;;;;;;26.85;14.10;;;9.70;51.50;;;;;;5113695;28;20027;-65
2022/03/04 11:12:53;;;;;;;27.30;14.10;;;9.80;50.80;;;;;;5113693;28;20020;-65
2022/03/04 11:15:20;;;;;;;29.13;14.93;;;10.00;50.90;;;;;;5113937;28;20056;-65
2022/03/04 11:17:48;;;;;;;29.08;15.70;;;10.20;50.30;;;;;;5113667;28;20027;-65
2022/03/04 11:20:15;;;;;;;27.33;13.55;;;10.20;49.20;;;;;;5113631;28;20024;-66
2022/03/04 11:22:43;;;;;;;30.27;14.75;;;10.30;48.50;;;;;;5113570;28;20024;-67
2022/03/04 11:25:12;;;;;;;25.17;13.70;;;10.30;48.50;;;;;;5113420;28;20020;-66
2022/03/04 11:27:49;;;;;;;27.17;13.93;;;10.40;48.50;;;;;;5113365;28;20099;-67
2022/03/04 11:30:35;;;;;;;27.13;13.50;;;10.50;47.90;;;;;;5095919;28;20061;-67
2022/03/04 11:33:21;;;;;;;23.88;12.88;;;10.50;46.20;;;;;;5113404;28;20020;-66
2022/03/04 11:35:49;;;;;;;27.90;13.50;;;10.40;44.80;;;;;;5113413;28;20035;-67
2022/03/04 11:38:14;;;;;;;21.60;12.23;;;10.40;47.10;;;;;;5113400;28;20047;-67
2022/03/04 11:40:50;;;;;;;24.10;12.23;;;10.50;47.80;;;;;;5113511;28;20088;-67
2022/03/04 11:43:17;;;;;;;25.08;13.63;;;10.60;44.10;;;;;;5113411;28;20119;-66
2022/03/04 11:45:43;;;;;;;27.52;13.10;;;10.50;45.30;;;;;;5095305;28;20029;-66
2022/03/04 11:48:13;;;;;;;22.67;14.02;;;10.60;44.70;;;;;;5112989;28;20108;-66
2022/03/04 11:50:45;;;;;;;25.90;12.48;;;10.70;45.30;;;;;;5095395;28;20057;-66
2022/03/04 11:53:22;;;;;;;22.42;12.30;;;10.80;43.30;;;;;;5113275;28;20471;-66
2022/03/04 11:56:14;;;;;;;28.42;14.13;;;10.90;45.90;;;;;;5113251;28;20032;-67
2022/03/04 11:58:59;;;;;;;26.55;13.93;;;11.10;44.20;;;;;;5113216;28;20036;-67
2022/03/04 12:01:27;;;;;;;24.92;13.52;;;11.30;44.50;;;;;;5113206;28;20025;-67
2022/03/04 12:04:14;;;;;;;24.77;13.25;;;11.30;44.90;;;;;;5113072;28;20120;-67
2022/03/04 12:06:41;;;;;;;29.92;14.40;;;11.50;44.50;;;;;;5112909;28;20047;-67
2022/03/04 12:09:30;;;;;;;24.00;13.30;;;11.60;46.00;;;;;;5113112;28;20046;-67
2022/03/04 12:12:20;;;;;;;28.83;13.43;;;11.70;44.60;;;;;;5113071;28;20072;-67
2022/03/04 12:14:54;;;;;;;24.10;14.43;;;11.60;44.70;;;;;;5113203;28;20042;-67
2022/03/04 12:17:21;;;;;;;26.20;14.30;;;11.80;45.60;;;;;;5113075;28;20024;-64
2022/03/04 12:19:48;;;;;;;26.65;13.95;;;11.90;45.40;;;;;;5113001;28;20051;-64
2022/03/04 12:22:16;;;;;;;25.38;14.43;;;11.80;44.00;;;;;;5113020;28;20055;-64
2022/03/04 12:24:53;;;;;;;25.67;13.60;;;11.90;45.40;;;;;;5095041;28;20116;-66
2022/03/04 12:27:53;;;;;;;27.63;14.40;;;11.90;42.60;;;;;;5112953;28;20048;-64
2022/03/04 12:30:21;;;;;;;25.35;13.82;;;12.00;43.30;;;;;;5095031;28;20020;-64
2022/03/04 12:32:49;;;;;;;28.52;13.60;;;12.10;44.20;;;;;;5112935;28;20028;-64
2022/03/04 12:35:16;;;;;;;23.40;12.00;;;12.20;43.80;;;;;;5112986;28;20093;-64
2022/03/04 12:37:42;;;;;;;26.55;13.85;;;12.20;39.30;;;;;;5112788;28;20056;-66
2022/03/04 12:40:09;;;;;;;24.33;13.73;;;12.10;41.40;;;;;;5115262;28;20050;-64